地図

経路データ

SID SEASON NUMBER BASIN SUBBASIN NAME ISO_TIME NATURE LAT LON WMO_WIND WMO_PRES WMO_AGENCY TRACK_TYPE DIST2LAND LANDFALL IFLAG USA_AGENCY USA_ATCF_ID USA_LAT USA_LON USA_RECORD USA_STATUS USA_WIND USA_PRES USA_SSHS USA_R34_NE USA_R34_SE USA_R34_SW USA_R34_NW USA_R50_NE USA_R50_SE USA_R50_SW USA_R50_NW USA_R64_NE USA_R64_SE USA_R64_SW USA_R64_NW USA_POCI USA_ROCI USA_RMW USA_EYE TOKYO_LAT TOKYO_LON TOKYO_GRADE TOKYO_WIND TOKYO_PRES TOKYO_R50_DIR TOKYO_R50_LONG TOKYO_R50_SHORT TOKYO_R30_DIR TOKYO_R30_LONG TOKYO_R30_SHORT TOKYO_LAND CMA_LAT CMA_LON CMA_CAT CMA_WIND CMA_PRES HKO_LAT HKO_LON HKO_CAT HKO_WIND HKO_PRES NEWDELHI_LAT NEWDELHI_LON NEWDELHI_GRADE NEWDELHI_WIND NEWDELHI_PRES NEWDELHI_CI NEWDELHI_DP NEWDELHI_POCI REUNION_LAT REUNION_LON REUNION_TYPE REUNION_WIND REUNION_PRES REUNION_TNUM REUNION_CI REUNION_RMW REUNION_R34_NE REUNION_R34_SE REUNION_R34_SW REUNION_R34_NW REUNION_R50_NE REUNION_R50_SE REUNION_R50_SW REUNION_R50_NW REUNION_R64_NE REUNION_R64_SE REUNION_R64_SW REUNION_R64_NW BOM_LAT BOM_LON BOM_TYPE BOM_WIND BOM_PRES BOM_TNUM BOM_CI BOM_RMW BOM_R34_NE BOM_R34_SE BOM_R34_SW BOM_R34_NW BOM_R50_NE BOM_R50_SE BOM_R50_SW BOM_R50_NW BOM_R64_NE BOM_R64_SE BOM_R64_SW BOM_R64_NW BOM_ROCI BOM_POCI BOM_EYE BOM_POS_METHOD BOM_PRES_METHOD NADI_LAT NADI_LON NADI_CAT NADI_WIND NADI_PRES WELLINGTON_LAT WELLINGTON_LON WELLINGTON_WIND WELLINGTON_PRES DS824_LAT DS824_LON DS824_STAGE DS824_WIND DS824_PRES TD9636_LAT TD9636_LON TD9636_STAGE TD9636_WIND TD9636_PRES TD9635_LAT TD9635_LON TD9635_WIND TD9635_PRES TD9635_ROCI NEUMANN_LAT NEUMANN_LON NEUMANN_CLASS NEUMANN_WIND NEUMANN_PRES MLC_LAT MLC_LON MLC_CLASS MLC_WIND MLC_PRES USA_GUST BOM_GUST BOM_GUST_PER REUNION_GUST REUNION_GUST_PER USA_SEAHGT USA_SEARAD_NE USA_SEARAD_SE USA_SEARAD_SW USA_SEARAD_NW STORM_SPEED STORM_DIR
1908040S13056 1908 8 SI MM NOT_NAMED 1908-02-09 00:00:00 TS -12.5000 55.7000 main 623 581 _________O____ -1 -12.5000 55.7000 TC 8 263
1908040S13056 1908 8 SI MM NOT_NAMED 1908-02-09 03:00:00 TS -12.5502 55.2875 main 579 537 _________P____ -1 -12.5502 55.2875 TC 8 263
1908040S13056 1908 8 SI MM NOT_NAMED 1908-02-09 06:00:00 TS -12.6000 54.9000 main 537 505 _________O____ -1 -12.6000 54.9000 TC 7 262
1908040S13056 1908 8 SI MM NOT_NAMED 1908-02-09 09:00:00 TS -12.6499 54.5500 main 505 460 _________P____ -1 -12.6499 54.5500 TC 7 262
1908040S13056 1908 8 SI MM NOT_NAMED 1908-02-09 12:00:00 TS -12.7000 54.2000 main 460 419 _________O____ -1 -12.7000 54.2000 TC 7 263
1908040S13056 1908 8 SI MM NOT_NAMED 1908-02-09 15:00:00 TS -12.7425 53.8075 main 419 374 _________P____ -1 -12.7425 53.8075 TC 8 263
1908040S13056 1908 8 SI MM NOT_NAMED 1908-02-09 18:00:00 TS -12.8000 53.4000 main 374 329 _________O____ -1 -12.8000 53.4000 TC 8 259
1908040S13056 1908 8 SI MM NOT_NAMED 1908-02-09 21:00:00 TS -12.9001 52.9701 main 329 285 _________P____ -1 -12.9001 52.9701 TC 8 256
1908040S13056 1908 8 SI MM NOT_NAMED 1908-02-10 00:00:00 TS -13.0000 52.6000 main 285 260 _________O____ -1 -13.0000 52.6000 TC 6 255
1908040S13056 1908 8 SI MM NOT_NAMED 1908-02-10 03:00:00 TS -13.0574 52.3774 main 260 240 _________P____ -1 -13.0574 52.3774 TC 4 256
1908040S13056 1908 8 SI MM NOT_NAMED 1908-02-10 06:00:00 TS -13.1000 52.2000 main 240 219 _________O____ -1 -13.1000 52.2000 TC 4 257
1908040S13056 1908 8 SI MM NOT_NAMED 1908-02-10 09:00:00 TS -13.1500 51.9575 main 219 185 _________P____ -1 -13.1500 51.9575 TC 5 258
1908040S13056 1908 8 SI MM NOT_NAMED 1908-02-10 12:00:00 TS -13.2000 51.7000 main 185 161 _________O____ -1 -13.2000 51.7000 TC 5 258
1908040S13056 1908 8 SI MM NOT_NAMED 1908-02-10 15:00:00 TS -13.2575 51.4575 main 161 130 _________P____ -1 -13.2575 51.4575 TC 5 258
1908040S13056 1908 8 SI MM NOT_NAMED 1908-02-10 18:00:00 TS -13.3000 51.2000 main 130 98 _________O____ -1 -13.3000 51.2000 TC 5 265
1908040S13056 1908 8 SI MM NOT_NAMED 1908-02-10 21:00:00 TS -13.3000 50.9149 main 98 65 _________P____ -1 -13.3000 50.9149 TC 6 270
1908040S13056 1908 8 SI MM NOT_NAMED 1908-02-11 00:00:00 TS -13.3000 50.6000 main 65 34 _________O____ -1 -13.3000 50.6000 TC 6 267
1908040S13056 1908 8 SI MM NOT_NAMED 1908-02-11 03:00:00 TS -13.3350 50.2500 main 34 0 _________P____ -1 -13.3350 50.2500 TC 7 262
1908040S13056 1908 8 SI MM NOT_NAMED 1908-02-11 06:00:00 TS -13.4000 49.9000 main 0 0 _________O____ -1 -13.4000 49.9000 TC 7 256
1908040S13056 1908 8 SI MM NOT_NAMED 1908-02-11 09:00:00 TS -13.4999 49.5925 main 0 0 _________P____ -1 -13.4999 49.5925 TC 6 251
1908040S13056 1908 8 SI MM NOT_NAMED 1908-02-11 12:00:00 TS -13.6000 49.3000 main 0 0 _________O____ -1 -13.6000 49.3000 TC 6 255
1908040S13056 1908 8 SI MM NOT_NAMED 1908-02-11 15:00:00 TS -13.6575 48.9925 main 0 0 _________P____ -1 -13.6575 48.9925 TC 6 260
1908040S13056 1908 8 SI MM NOT_NAMED 1908-02-11 18:00:00 TS -13.7000 48.7000 main 0 0 _________O____ -1 -13.7000 48.7000 TC 5 261
1908040S13056 1908 8 SI MM NOT_NAMED 1908-02-11 21:00:00 TS -13.7424 48.4649 main 0 0 _________P____ -1 -13.7424 48.4649 TC 5 258
1908040S13056 1908 8 SI MM NOT_NAMED 1908-02-12 00:00:00 TS -13.8000 48.2000 main 0 0 _________O____ -1 -13.8000 48.2000 TC 6 257
1908040S13056 1908 8 SI MM NOT_NAMED 1908-02-12 03:00:00 TS -13.8850 47.8225 main 10 10 _________P____ -1 -13.8850 47.8225 TC 8 256
1908040S13056 1908 8 SI MM NOT_NAMED 1908-02-12 06:00:00 TS -14.0000 47.4000 main 54 54 _________O____ -1 -14.0000 47.4000 TC 8 252
1908040S13056 1908 8 SI MM NOT_NAMED 1908-02-12 09:00:00 TS -14.1425 46.9925 main 82 78 _________P____ -1 -14.1425 46.9925 TC 8 249
1908040S13056 1908 8 SI MM NOT_NAMED 1908-02-12 12:00:00 TS -14.3000 46.6000 main 100 100 _________O____ -1 -14.3000 46.6000 TC 8 247
1908040S13056 1908 8 SI MM NOT_NAMED 1908-02-12 15:00:00 TS -14.4499 46.2499 main 119 109 _________P____ -1 -14.4499 46.2499 TC 7 246
1908040S13056 1908 8 SI MM NOT_NAMED 1908-02-12 18:00:00 TS -14.6000 45.9000 main 116 116 _________O____ -1 -14.6000 45.9000 TC 8 247
1908040S13056 1908 8 SI MM NOT_NAMED 1908-02-12 21:00:00 TS -14.7651 45.4776 main 123 119 _________P____ -1 -14.7651 45.4776 TC 8 249
1908040S13056 1908 8 SI MM NOT_NAMED 1908-02-13 00:00:00 TS -14.9000 45.1000 main 123 113 _________O____ -1 -14.9000 45.1000 TC 6 251
1908040S13056 1908 8 SI MM NOT_NAMED 1908-02-13 03:00:00 TS -14.9649 44.8624 main 113 113 _________P____ -1 -14.9649 44.8624 TC 4 255
1908040S13056 1908 8 SI MM NOT_NAMED 1908-02-13 06:00:00 TS -15.0000 44.7000 main 119 119 _________O____ -1 -15.0000 44.7000 TC 3 256
1908040S13056 1908 8 SI MM NOT_NAMED 1908-02-13 09:00:00 TS -15.0425 44.5500 main 129 119 _________P____ -1 -15.0425 44.5500 TC 3 251
1908040S13056 1908 8 SI MM NOT_NAMED 1908-02-13 12:00:00 TS -15.1000 44.4000 main 125 123 _________O____ -1 -15.1000 44.4000 TC 4 246
1908040S13056 1908 8 SI MM NOT_NAMED 1908-02-13 15:00:00 TS -15.1925 44.2000 main 124 116 _________P____ -1 -15.1925 44.2000 TC 4 243
1908040S13056 1908 8 SI MM NOT_NAMED 1908-02-13 18:00:00 TS -15.3000 44.0000 main 119 114 _________O____ -1 -15.3000 44.0000 TC 4 239
1908040S13056 1908 8 SI MM NOT_NAMED 1908-02-13 21:00:00 TS -15.4000 43.8425 main 119 110 _________P____ -1 -15.4000 43.8425 TC 4 235
1908040S13056 1908 8 SI MM NOT_NAMED 1908-02-14 00:00:00 TS -15.5000 43.7000 main 116 116 _________O____ -1 -15.5000 43.7000 TC 3 235
1908040S13056 1908 8 SI MM NOT_NAMED 1908-02-14 03:00:00 TS -15.6000 43.5500 main 116 117 _________P____ -1 -15.6000 43.5500 TC 4 235
1908040S13056 1908 8 SI MM NOT_NAMED 1908-02-14 06:00:00 TS -15.7000 43.4000 main 126 126 _________O____ -1 -15.7000 43.4000 TC 4 236
1908040S13056 1908 8 SI MM NOT_NAMED 1908-02-14 09:00:00 TS -15.8000 43.2425 main 139 135 _________P____ -1 -15.8000 43.2425 TC 4 235
1908040S13056 1908 8 SI MM NOT_NAMED 1908-02-14 12:00:00 TS -15.9000 43.1000 main 145 145 _________O____ -1 -15.9000 43.1000 TC 3 230
1908040S13056 1908 8 SI MM NOT_NAMED 1908-02-14 15:00:00 TS -16.0000 42.9925 main 153 153 _________P____ -1 -16.0000 42.9925 TC 3 224
1908040S13056 1908 8 SI MM NOT_NAMED 1908-02-14 18:00:00 TS -16.1000 42.9000 main 161 161 _________O____ -1 -16.1000 42.9000 TC 3 222
1908040S13056 1908 8 SI MM NOT_NAMED 1908-02-14 21:00:00 TS -16.2000 42.8075 main 171 170 _________P____ -1 -16.2000 42.8075 TC 3 224
1908040S13056 1908 8 SI MM NOT_NAMED 1908-02-15 00:00:00 TS -16.3000 42.7000 main 179 179 _________O____ -1 -16.3000 42.7000 TC 3 232
1908040S13056 1908 8 SI MM NOT_NAMED 1908-02-15 03:00:00 TS -16.3925 42.5500 main 183 186 _________P____ -1 -16.3925 42.5500 TC 4 235
1908040S13056 1908 8 SI MM NOT_NAMED 1908-02-15 06:00:00 TS -16.5000 42.4000 main 194 188 _________O____ -1 -16.5000 42.4000 TC 4 225
1908040S13056 1908 8 SI MM NOT_NAMED 1908-02-15 09:00:00 TS -16.6425 42.2850 main 197 192 _________P____ -1 -16.6425 42.2850 TC 4 212
1908040S13056 1908 8 SI MM NOT_NAMED 1908-02-15 12:00:00 TS -16.8000 42.2000 main 196 192 _________O____ -1 -16.8000 42.2000 TC 3 204
1908040S13056 1908 8 SI MM NOT_NAMED 1908-02-15 15:00:00 TS -16.9500 42.1425 main 202 196 _________P____ -1 -16.9500 42.1425 TC 3 197
1908040S13056 1908 8 SI MM NOT_NAMED 1908-02-15 18:00:00 TS -17.1000 42.1000 main 196 194 _________O____ -1 -17.1000 42.1000 TC 3 196
1908040S13056 1908 8 SI MM NOT_NAMED 1908-02-15 21:00:00 TS -17.2500 42.0500 main 194 201 _________P____ -1 -17.2500 42.0500 TC 3 197
1908040S13056 1908 8 SI MM NOT_NAMED 1908-02-16 00:00:00 TS -17.4000 42.0000 main 201 201 _________O____ -1 -17.4000 42.0000 TC 3 197
1908040S13056 1908 8 SI MM NOT_NAMED 1908-02-16 03:00:00 TS -17.5500 41.9500 main 212 212 _________P____ -1 -17.5500 41.9500 TC 3 197
1908040S13056 1908 8 SI MM NOT_NAMED 1908-02-16 06:00:00 TS -17.7000 41.9000 main 213 213 _________O____ -1 -17.7000 41.9000 TC 3 198
1908040S13056 1908 8 SI MM NOT_NAMED 1908-02-16 09:00:00 TS -17.8575 41.8425 main 226 226 _________P____ -1 -17.8575 41.8425 TC 3 197
1908040S13056 1908 8 SI MM NOT_NAMED 1908-02-16 12:00:00 TS -18.0000 41.8000 main 229 229 _________O____ -1 -18.0000 41.8000 TC 3 189
1908040S13056 1908 8 SI MM NOT_NAMED 1908-02-16 15:00:00 TS -18.1075 41.7925 main 232 232 _________P____ -1 -18.1075 41.7925 TC 2 172
1908040S13056 1908 8 SI MM NOT_NAMED 1908-02-16 18:00:00 TS -18.2000 41.8000 main 232 232 _________O____ -1 -18.2000 41.8000 TC 2 175
1908040S13056 1908 8 SI MM NOT_NAMED 1908-02-16 21:00:00 TS -18.2925 41.8000 main 232 232 _________P____ -1 -18.2925 41.8000 TC 2 172
1908040S13056 1908 8 SI MM NOT_NAMED 1908-02-17 00:00:00 TS -18.4000 41.8000 main 232 232 _________O____ -1 -18.4000 41.8000 TC 3 182
1908040S13056 1908 8 SI MM NOT_NAMED 1908-02-17 03:00:00 TS -18.5425 41.7925 main 232 232 _________P____ -1 -18.5425 41.7925 TC 3 0
1908040S13056 1908 8 SI MM NOT_NAMED 1908-02-17 06:00:00 TS -18.7000 41.8000 main 234 234 _________O____ -1 -18.7000 41.8000 TC 3 171
1908040S13056 1908 8 SI MM NOT_NAMED 1908-02-17 09:00:00 TS -18.8500 41.8500 main 238 228 _________P____ -1 -18.8500 41.8500 TC 3 163
1908040S13056 1908 8 SI MM NOT_NAMED 1908-02-17 12:00:00 TS -19.0000 41.9000 main 231 231 _________O____ -1 -19.0000 41.9000 TC 3 174
1908040S13056 1908 8 SI MM NOT_NAMED 1908-02-17 15:00:00 TS -19.1575 41.9000 main 238 238 _________P____ -1 -19.1575 41.9000 TC 3 0
1908040S13056 1908 8 SI MM NOT_NAMED 1908-02-17 18:00:00 TS -19.3000 41.9000 main 242 242 _________O____ -1 -19.3000 41.9000 TC 2 170
1908040S13056 1908 8 SI MM NOT_NAMED 1908-02-17 21:00:00 TS -19.3850 41.9350 main 243 233 _________P____ -1 -19.3850 41.9350 TC 2 153
1908040S13056 1908 8 SI MM NOT_NAMED 1908-02-18 00:00:00 TS -19.5000 42.0000 main 235 224 _________O____ -1 -19.5000 42.0000 TC 4 157
1908040S13056 1908 8 SI MM NOT_NAMED 1908-02-18 03:00:00 TS -19.7275 42.0925 main 224 198 _________P____ -1 -19.7275 42.0925 TC 5 159
1908040S13056 1908 8 SI MM NOT_NAMED 1908-02-18 06:00:00 TS -20.0000 42.2000 main 198 179 _________O____ -1 -20.0000 42.2000 TC 6 160
1908040S13056 1908 8 SI MM NOT_NAMED 1908-02-18 09:00:00 TS -20.2575 42.3000 main 175 152 _________P____ -1 -20.2575 42.3000 TC 5 160
1908040S13056 1908 8 SI MM NOT_NAMED 1908-02-18 12:00:00 TS -20.5000 42.4000 main 152 129 _________O____ -1 -20.5000 42.4000 TC 5 158
1908040S13056 1908 8 SI MM NOT_NAMED 1908-02-18 15:00:00 TS -20.7150 42.4925 main 129 108 _________P____ -1 -20.7150 42.4925 TC 4 155
1908040S13056 1908 8 SI MM NOT_NAMED 1908-02-18 18:00:00 TS -20.9000 42.6000 main 108 89 _________O____ -1 -20.9000 42.6000 TC 4 145
1908040S13056 1908 8 SI MM NOT_NAMED 1908-02-18 21:00:00 TS -21.0650 42.7575 main 79 66 _________P____ -1 -21.0650 42.7575 TC 4 137
1908040S13056 1908 8 SI MM NOT_NAMED 1908-02-19 00:00:00 TS -21.2000 42.9000 main 66 52 _________O____ -1 -21.2000 42.9000 TC 3 142
1908040S13056 1908 8 SI MM NOT_NAMED 1908-02-19 03:00:00 TS -21.3075 42.9576 main 52 51 _________P____ -1 -21.3075 42.9576 TC 2 153
1908040S13056 1908 8 SI MM NOT_NAMED 1908-02-19 06:00:00 TS -21.4000 43.0000 main 51 41 _________O____ -1 -21.4000 43.0000 TC 2 146
1908040S13056 1908 8 SI MM NOT_NAMED 1908-02-19 09:00:00 TS -21.5075 43.1000 main 41 30 _________P____ -1 -21.5075 43.1000 TC 3 137
1908040S13056 1908 8 SI MM NOT_NAMED 1908-02-19 12:00:00 TS -21.6000 43.2000 main 30 23 _________O____ -1 -21.6000 43.2000 TC 2 138
1908040S13056 1908 8 SI MM NOT_NAMED 1908-02-19 15:00:00 TS -21.6575 43.2500 main 15 15 _________P____ -1 -21.6575 43.2500 TC 1 137
1908040S13056 1908 8 SI MM NOT_NAMED 1908-02-19 18:00:00 TS -21.7000 43.3000 main 15 10 _________O____ -1 -21.7000 43.3000 TC 2 125
1908040S13056 1908 8 SI MM NOT_NAMED 1908-02-19 21:00:00 TS -21.7500 43.4000 main 0 0 _________P____ -1 -21.7500 43.4000 TC 2 119
1908040S13056 1908 8 SI MM NOT_NAMED 1908-02-20 00:00:00 TS -21.8000 43.5000 main 0 0 _________O____ -1 -21.8000 43.5000 TC 2 124
1908040S13056 1908 8 SI MM NOT_NAMED 1908-02-20 03:00:00 TS -21.8500 43.5575 main 0 0 _________P____ -1 -21.8500 43.5575 TC 1 137
1908040S13056 1908 8 SI MM NOT_NAMED 1908-02-20 06:00:00 TS -21.9000 43.6000 main 0 0 _________O____ -1 -21.9000 43.6000 TC 1 143
1908040S13056 1908 8 SI MM NOT_NAMED 1908-02-20 09:00:00 TS -21.9500 43.6425 main 0 0 _________P____ -1 -21.9500 43.6425 TC 1 140
1908040S13056 1908 8 SI MM NOT_NAMED 1908-02-20 12:00:00 TS -22.0000 43.7000 main 0 0 _________O____ -1 -22.0000 43.7000 TC 2 127
1908040S13056 1908 8 SI MM NOT_NAMED 1908-02-20 15:00:00 TS -22.0500 43.7925 main 0 0 _________P____ -1 -22.0500 43.7925 TC 2 119
1908040S13056 1908 8 SI MM NOT_NAMED 1908-02-20 18:00:00 TS -22.1000 43.9000 main 0 0 _________O____ -1 -22.1000 43.9000 TC 2 117
1908040S13056 1908 8 SI MM NOT_NAMED 1908-02-20 21:00:00 TS -22.1500 44.0075 main 0 0 _________P____ -1 -22.1500 44.0075 TC 2 119
1908040S13056 1908 8 SI MM NOT_NAMED 1908-02-21 00:00:00 TS -22.2000 44.1000 main 0 0 _________O____ -1 -22.2000 44.1000 TC 2 130
1908040S13056 1908 8 SI MM NOT_NAMED 1908-02-21 03:00:00 TS -22.2575 44.1500 main 0 0 _________P____ -1 -22.2575 44.1500 TC 1 140
1908040S13056 1908 8 SI MM NOT_NAMED 1908-02-21 06:00:00 TS -22.3000 44.2000 main 0 0 _________O____ -1 -22.3000 44.2000 TC 1 108
1908040S13056 1908 8 SI MM NOT_NAMED 1908-02-21 09:00:00 TS -22.3000 44.2925 main 0 0 _________P____ -1 -22.3000 44.2925 TC 2 90
1908040S13056 1908 8 SI MM NOT_NAMED 1908-02-21 12:00:00 TS -22.3000 44.4000 main 0 0 _________O____ -1 -22.3000 44.4000 TC 2 105
1908040S13056 1908 8 SI MM NOT_NAMED 1908-02-21 15:00:00 TS -22.3500 44.4925 main 0 0 _________P____ -1 -22.3500 44.4925 TC 2 119
1908040S13056 1908 8 SI MM NOT_NAMED 1908-02-21 18:00:00 TS -22.4000 44.6000 main 0 0 _________O____ -1 -22.4000 44.6000 TC 2 104
1908040S13056 1908 8 SI MM NOT_NAMED 1908-02-21 21:00:00 TS -22.4075 44.7500 main 0 0 _________P____ -1 -22.4075 44.7500 TC 3 90
1908040S13056 1908 8 SI MM NOT_NAMED 1908-02-22 00:00:00 TS -22.4000 44.9000 main 0 0 _________O____ -1 -22.4000 44.9000 TC 2 86
1908040S13056 1908 8 SI MM NOT_NAMED 1908-02-22 03:00:00 TS -22.3925 45.0150 main 0 0 _________P____ -1 -22.3925 45.0150 TC 2 90
1908040S13056 1908 8 SI MM NOT_NAMED 1908-02-22 06:00:00 TS -22.4000 45.1000 main 0 0 _________O____ -1 -22.4000 45.1000 TC 1 111
1908040S13056 1908 8 SI MM NOT_NAMED 1908-02-22 09:00:00 TS -22.4425 45.1575 main 0 0 _________P____ -1 -22.4425 45.1575 TC 1 140
1908040S13056 1908 8 SI MM NOT_NAMED 1908-02-22 12:00:00 TS -22.5000 45.2000 main 0 0 _________O____ -1 -22.5000 45.2000 TC 1 142
1908040S13056 1908 8 SI MM NOT_NAMED 1908-02-22 15:00:00 TS -22.5500 45.2575 main 0 0 _________P____ -1 -22.5500 45.2575 TC 1 140
1908040S13056 1908 8 SI MM NOT_NAMED 1908-02-22 18:00:00 TS -22.6000 45.3000 main 0 0 _________O____ -1 -22.6000 45.3000 TC 1 164
1908040S13056 1908 8 SI MM NOT_NAMED 1908-02-22 21:00:00 TS -22.6575 45.2925 main 0 0 _________P____ -1 -22.6575 45.2925 TC 1 0
1908040S13056 1908 8 SI MM NOT_NAMED 1908-02-23 00:00:00 TS -22.7000 45.3000 main 0 0 _________O____ -1 -22.7000 45.3000 TC 1 116
1908040S13056 1908 8 SI MM NOT_NAMED 1908-02-23 03:00:00 TS -22.7000 45.3925 main 0 0 _________P____ -1 -22.7000 45.3925 TC 2 90
1908040S13056 1908 8 SI MM NOT_NAMED 1908-02-23 06:00:00 TS -22.7000 45.5000 main 0 0 _________O____ -1 -22.7000 45.5000 TC 2 106
1908040S13056 1908 8 SI MM NOT_NAMED 1908-02-23 09:00:00 TS -22.7425 45.5575 main 0 0 _________P____ -1 -22.7425 45.5575 TC 1 140
1908040S13056 1908 8 SI MM NOT_NAMED 1908-02-23 12:00:00 TS -22.8000 45.6000 main 0 0 _________O____ -1 -22.8000 45.6000 TC 1 142
1908040S13056 1908 8 SI MM NOT_NAMED 1908-02-23 15:00:00 TS -22.8500 45.6500 main 0 0 _________P____ -1 -22.8500 45.6500 TC 1 140
1908040S13056 1908 8 SI MM NOT_NAMED 1908-02-23 18:00:00 TS -22.9000 45.7000 main 0 0 _________O____ -1 -22.9000 45.7000 TC 1 140
1908040S13056 1908 8 SI MM NOT_NAMED 1908-02-23 21:00:00 TS -22.9500 45.7500 main 0 0 _________P____ -1 -22.9500 45.7500 TC 1 140
1908040S13056 1908 8 SI MM NOT_NAMED 1908-02-24 00:00:00 TS -23.0000 45.8000 main 0 0 _________O____ -1 -23.0000 45.8000 TC 1 138
1908040S13056 1908 8 SI MM NOT_NAMED 1908-02-24 03:00:00 TS -23.0425 45.8500 main 0 0 _________P____ -1 -23.0425 45.8500 TC 1 140
1908040S13056 1908 8 SI MM NOT_NAMED 1908-02-24 06:00:00 TS -23.1000 45.9000 main 0 0 _________O____ -1 -23.1000 45.9000 TC 2 148
1908040S13056 1908 8 SI MM NOT_NAMED 1908-02-24 09:00:00 TS -23.1925 45.9575 main 0 0 _________P____ -1 -23.1925 45.9575 TC 2 155
1908040S13056 1908 8 SI MM NOT_NAMED 1908-02-24 12:00:00 TS -23.3000 46.0000 main 0 0 _________O____ -1 -23.3000 46.0000 TC 2 167
1908040S13056 1908 8 SI MM NOT_NAMED 1908-02-24 15:00:00 TS -23.4000 46.0000 main 0 0 _________P____ -1 -23.4000 46.0000 TC 2 172
1908040S13056 1908 8 SI MM NOT_NAMED 1908-02-24 18:00:00 TS -23.5000 46.0000 main 0 0 _________O____ -1 -23.5000 46.0000 TC 2 167
1908040S13056 1908 8 SI MM NOT_NAMED 1908-02-24 21:00:00 TS -23.6000 46.0425 main 0 0 _________P____ -1 -23.6000 46.0425 TC 2 155
1908040S13056 1908 8 SI MM NOT_NAMED 1908-02-25 00:00:00 TS -23.7000 46.1000 main 0 0 _________O____ -1 -23.7000 46.1000 TC 2 156
1908040S13056 1908 8 SI MM NOT_NAMED 1908-02-25 03:00:00 TS -23.8075 46.1425 main 0 0 _________P____ -1 -23.8075 46.1425 TC 2 155
1908040S13056 1908 8 SI MM NOT_NAMED 1908-02-25 06:00:00 TS -23.9000 46.2000 main 0 0 _________O____ -1 -23.9000 46.2000 TC 2 135
1908040S13056 1908 8 SI MM NOT_NAMED 1908-02-25 09:00:00 TS -23.9500 46.3000 main 0 0 _________P____ -1 -23.9500 46.3000 TC 2 119
1908040S13056 1908 8 SI MM NOT_NAMED 1908-02-25 12:00:00 TS -24.0000 46.4000 main 0 0 _________O____ -1 -24.0000 46.4000 TC 2 136
1908040S13056 1908 8 SI MM NOT_NAMED 1908-02-25 15:00:00 TS -24.0925 46.4500 main 0 0 _________P____ -1 -24.0925 46.4500 TC 2 155
1908040S13056 1908 8 SI MM NOT_NAMED 1908-02-25 18:00:00 TS -24.2000 46.5000 main 0 0 _________O____ -1 -24.2000 46.5000 TC 3 147
1908040S13056 1908 8 SI MM NOT_NAMED 1908-02-25 21:00:00 TS -24.3075 46.6000 main 0 0 _________P____ -1 -24.3075 46.6000 TC 3 138
1908040S13056 1908 8 SI MM NOT_NAMED 1908-02-26 00:00:00 TS -24.4000 46.7000 main 0 0 _________O____ -1 -24.4000 46.7000 TC 2 136
1908040S13056 1908 8 SI MM NOT_NAMED 1908-02-26 03:00:00 TS -24.4500 46.7500 main 0 0 _________P____ -1 -24.4500 46.7500 TC 1 140
1908040S13056 1908 8 SI MM NOT_NAMED 1908-02-26 06:00:00 TS -24.5000 46.8000 main 0 0 _________O____ -1 -24.5000 46.8000 TC 2 138
1908040S13056 1908 8 SI MM NOT_NAMED 1908-02-26 09:00:00 TS -24.6000 46.9000 main 0 0 _________P____ -1 -24.6000 46.9000 TC 3 138
1908040S13056 1908 8 SI MM NOT_NAMED 1908-02-26 12:00:00 TS -24.7000 47.0000 main 0 0 _________O____ -1 -24.7000 47.0000 TC 2 138
1908040S13056 1908 8 SI MM NOT_NAMED 1908-02-26 15:00:00 TS -24.7575 47.0575 main 0 0 _________P____ -1 -24.7575 47.0575 TC 1 140
1908040S13056 1908 8 SI MM NOT_NAMED 1908-02-26 18:00:00 TS -24.8000 47.1000 main 0 0 _________O____ -1 -24.8000 47.1000 TC 1 139
1908040S13056 1908 8 SI MM NOT_NAMED 1908-02-26 21:00:00 TS -24.8475 47.1475 main 0 0 _________P____ -1 -24.8475 47.1475 TC 1 140
1908040S13056 1908 8 SI MM NOT_NAMED 1908-02-27 00:00:00 TS -24.9000 47.2000 main 10 _________O____ -1 -24.9000 47.2000 TC 1 140

IBTrACS Databaseについて

本データベースは、米国NOAAが公開する1842年以降の世界の熱帯低気圧のベストトラックデータアーカイブInternational Best Track Archive for Climate Stewardship (IBTrACS)を、ウェブで閲覧しやすい形式に変換したものです。

最終更新日:2021-10-27